Last 30 Days

Squaw-Red Dog 6200'

Daily Data | America/Los_Angeles
as of 2/18/20 7:42 AM PST
Date Daily Max Temp (°F) Max Temp Time Daily Min Temp (°F) Min Temp Time Daily Rain (In) New Snow (in) SnowDepth (in) Wind Spd (mph) Daily Max Wind (mph) Max Wind Time Max Wind Dir (°) Max RH (%) Min RH (%) Wet Bulb (°F) WetB Hrs <28F (hrs) Bat Volt Min Day (V)
2/17/20 48.3 1417 22.8 0710 0.00 0.1 89.1 1.9 12.2 1231 S | 171 98 11 27.0 - 12.4
2/16/20 50.5 1543 30.6 2302 0.00 0.2 89.0 6.7 24.0 0302 N | 4 92 40 35.2 0.0 12.5
2/15/20 46.7 1504 23.9 0545 0.00 0.4 88.9 6.9 20.5 1829 NW | 322 89 27 31.9 21.9 12.4
2/14/20 47.9 1457 22.6 0712 0.00 0.6 88.7 2.6 12.6 1424 NNW | 337 93 32 29.4 - 12.4
2/13/20 48.7 1551 18.0 0607 0.00 0.6 88.6 2.1 15.4 1321 NNE | 30 96 29 27.9 - 12.4
2/12/20 50.0 1355 19.1 0717 0.00 0.6 88.0 1.2 11.1 1450 SSW | 208 100 24 26.9 - 12.4
2/11/20 50.3 1553 17.2 0622 0.00 0.6 88.9 1.6 12.0 1346 SSW | 192 95 25 25.9 - 12.5
2/10/20 43.6 1408 14.2 0642 0.00 0.6 88.1 2.0 15.7 1420 SSE | 163 88 31 23.3 - 12.4
2/9/20 34.2 1543 22.1 2357 0.00 0.6 88.0 8.9 27.8 1102 SW | 219 81 40 23.3 - 12.4
2/8/20 45.8 1302 25.3 2344 0.00 0.8 89.9 6.7 24.9 1441 NNW | 347 81 31 29.8 - 12.4
2/7/20 57.6 1455 20.6 0545 0.00 0.8 89.9 1.6 9.5 1517 NNW | 337 87 16 28.5 - 12.4
2/6/20 52.4 1348 23.8 0624 0.00 0.8 90.3 1.6 14.6 1214 SSW | 201 99 26 30.1 - 12.4
2/5/20 47.4 1326 14.5 0124 0.00 0.9 90.0 2.8 19.2 1018 SSW | 209 97 44 27.5 - 12.4
2/4/20 32.2 1514 6.7 0752 0.00 1.6 83.9 1.5 10.6 0103 SW | 220 85 34 15.9 - 12.5
2/3/20 24.9 1542 6.5 0719 0.00 1.7 82.0 4.7 20.9 1515 SW | 220 94 23 13.4 - 12.4
2/2/20 46.8 0018 10.8 2349 0.00 1.8 21.4 7.1 25.8 1408 NNW | 330 93 22 27.0 - 12.4
2/1/20 60.1 1350 22.4 0707 0.00 0.6 89.1 1.2 9.0 1438 NNW | 339 92 9 29.6 - 12.5
1/31/20 55.4 1451 25.6 0617 0.00 0.6 89.3 0.8 3.8 1811 S | 175 100 41 32.2 - 12.4
1/30/20 51.7 1355 27.7 2346 0.00 0.8 89.6 1.3 8.2 1512 SSW | 204 100 56 34.8 0.8 12.5
1/29/20 43.9 1348 18.3 0710 0.00 1.2 89.7 1.2 7.9 1545 SSW | 207 97 34 26.1 - 12.4
1/28/20 38.8 1303 22.8 2347 0.00 1.2 90.1 7.9 28.6 1413 N | 3 93 32 29.4 - 12.4
1/27/20 41.7 1518 28.5 0001 0.00 1.2 90.2 3.5 16.6 1945 NNW | 346 99 40 32.2 0.8 12.4
1/26/20 42.2 0234 28.0 2331 0.00 1.4 90.5 3.7 19.3 0349 NE | 39 100 70 - 0.9 12.5
1/25/20 50.7 1305 29.5 0745 0.00 0.1 89.6 2.3 11.0 2118 NNW | 348 96 44 36.6 0.0 12.4
1/24/20 42.2 0047 32.0 2327 0.00 - 90.9 5.1 23.0 0723 N | 8 94 56 35.9 0.0 12.4
1/23/20 47.1 1411 23.7 0612 0.00 - 93.1 1.3 15.2 2216 N | 3 99 65 33.4 - 12.4
1/22/20 46.8 1329 26.4 2359 0.00 0.5 94.7 3.9 22.6 0109 N | 349 99 - 34.3 5.9 12.4
1/21/20 37.1 2209 33.1 0407 0.00 0.6 95.2 9.1 30.2 1137 NNE | 27 96 71 32.8 0.0 12.4
1/20/20 46.2 1356 30.2 0050 0.00 0.1 95.0 3.1 17.8 1440 NE | 53 98 29 32.8 0.0 12.4
1/19/20 49.3 1355 21.3 0621 0.00 - 94.4 0.9 4.2 2243 NW | 313 99 37 29.3 - 12.4
Max 60.1 - 33.1 - 0.00 1.8 95.2 9.1 30.2 - - 100 71 36.6 21.9 12.5
Avg - - - - - 0.8 87.5 3.5 - - - - - 29.1 - -
Min 24.9 - 6.5 - 0.00 0.1 21.4 0.8 3.8 - - 81 9 13.4 0.0 12.4